AirNav   Everest Fuels
 
 646 users online  

04MI Rapids Airway Airport
Eaton Rapids, Michigan, USA

GOING TO EATON RAPIDS?


FAA INFORMATION EFFECTIVE 14 JULY 2022

Location

FAA Identifier: 04MI
Lat/Long: 42-32-04.1320N 084-37-41.9270W
42-32.068867N 084-37.698783W
42.5344811,-84.6283131
(estimated)
Elevation: 880 ft. / 268 m (estimated)
Variation: 04W (1980)
From city: 2 miles NE of EATON RAPIDS, MI
Time zone: UTC -4 (UTC -5 during Standard Time)
Zip code: 48827

Airport Operations

Airport use: Private use. Permission required prior to landing
Activation date: 10/1986
Control tower: no
ARTCC: CLEVELAND CENTER
FSS: LANSING FLIGHT SERVICE STATION
Attendance: DAYLIGHT HOURS
Wind indicator: yes
Segmented circle: no

Airport Communications

WX AWOS-3 at FPK (8 nm W): 118.075 (517-543-2288)
WX AWOS-3P at TEW (9 nm E): 119.425 (517-676-5607)
WX ASOS at LAN (15 nm N): PHONE 517-908-8494
WX ASOS at JXN (18 nm SE): PHONE 517-768-7506

Nearby radio navigation aids

VOR radial/distance  VOR name  Freq  Var
LFDr017/29.0LITCHFIELD VOR/DME111.2005W

Airport Services

Runway Information

Runway 18/36

Dimensions: 2000 x 100 ft. / 610 x 30 m
Surface: turf, in good condition
RUNWAY 18  RUNWAY 36
Traffic pattern: leftleft
Displaced threshold: 450 ft.225 ft.
Obstructions: 50 ft. trees, 550 ft. from runway28 ft. trees, 560 ft. from runway

Airport Ownership and Management from official FAA records

Ownership: Privately-owned
Owner: RONALD GOODNOE
10618 PETRIEVILLE HWY
EATON RAPIDS, MI 48827-9205
Phone 517-663-8721
Manager: RONALD GOODNOE
10618 PETRIEVILLE HWY
EATON RAPIDS, MI 48827-9205
Phone 517-663-8721

Airport Operational Statistics

Aircraft based on the field: 1
Single engine airplanes: 1
    

Additional Remarks

FOR CD CTC GREAT LAKES APCH AT 269-459-3345, WHEN APCH CLSD CTC CLEVELAND ARTCC AT 440-774-0224/0490.

Instrument Procedures

There are no published instrument procedures at 04MI.

Some nearby airports with instrument procedures:

KFPK - Fitch H Beach Airport (8 nm W)
KTEW - Mason Jewett Field Airport (9 nm E)
KLAN - Capital Region International Airport (15 nm N)
4D0 - Abrams Municipal Airport (15 nm N)
KJXN - Jackson County Airport-Reynolds Field (18 nm SE)
 
Loc | Ops | Rwys | IFR | FBO | Links
Com | Nav | Svcs | Stats | Notes
Area around 04MI (Rapids Airway Airport)
 
Road maps at: MapQuest Bing Google
 
Aerial photo
No photo
 
Sectional chart

 
Airport distance calculator
Flying to Rapids Airway Airport? Find the distance to fly.

From to 04MI

Sunrise and sunset
Times for 08-Aug-2022
 Local
(UTC-4)
 Zulu
(UTC)
Morning civil twilight06:0810:08
Sunrise06:3910:39
Sunset20:4900:49
Evening civil twilight21:2101:21

Current date and time
Zulu (UTC)  08-Aug-2022 05:20:42
Local (UTC-4)  08-Aug-2022 01:20:42
 
METAR
KFPK 
9nm W 
080455Z AUTO 20004KT 10SM SCT009 SCT014 BKN070 24/22 A3001 RMK AO2 T02350220
KTEW 
10nm E 
080455Z AUTO 00000KT 5SM RA SCT008 BKN038 OVC070 24/23 A3003 RMK AO2 T02360228
KLAN 
15nm N 
080502Z 21003KT 10SM BKN029 OVC037 24/23 A3002 RMK AO2 T02390228
KJXN 
18nm SE 
080456Z AUTO 21008KT 10SM SCT080 OVC110 23/21 A3004 RMK AO2 SLP163 T02330206 403220211 $
TAF
KLAN 
15nm N 
071742Z 0718/0818 24010G25KT 2SM TSRA SCT010 BKN025CB FM071900 25008KT 4SM SHRA VCTS OVC035CB FM072100 25008KT P6SM VCSH SCT040 BKN100 FM080300 21006KT 6SM BR VCSH BKN018 FM080600 22006KT 6SM BR VCSH BKN009 FM081100 21008KT 4SM SHRA BR VCTS OVC007CB FM081600 21010G20KT P6SM VCSH BKN015
KJXN 
18nm SE 
071742Z 0718/0818 21010KT P6SM SCT020 BKN070 FM071900 27018G32KT 1 1/2SM TSRA SCT010 BKN025CB FM072000 26008KT 5SM -SHRA VCTS BKN035CB FM072200 22005KT P6SM SCT040 BKN100 FM080600 21006KT 6SM BR VCSH BKN018 FM080900 21006KT 4SM SHRA BR VCTS OVC007CB FM081400 21010G20KT P6SM VCSH BKN015
NOTAMs
Click for the latest NOTAMs
NOTAMs are issued by the DoD/FAA and will open in a separate window not controlled by AirNav.

 

 
 

Would you like to see your business listed on this page?

 If your business provides an interesting product or service to pilots, flight crews, aircraft, or users of the Rapids Airway Airport, you should consider listing it here.  To start the listing process, click on the button below
 
Add a business
 

Other Pages about Rapids Airway Airport

Update a link
 
Copyright © AirNav, LLC. All rights reserved. Privacy Policy  Contact